sensor_id;sensor_type;location;lat;lon;timestamp;pressure;altitude;pressure_sealevel;temperature;humidity
68141;BME280;54941;52.220;104.306;2023-07-28T00:01:30;95485.25;;;24.92;45.90
68141;BME280;54941;52.220;104.306;2023-07-28T00:03:56;95471.56;;;25.42;45.52
68141;BME280;54941;52.220;104.306;2023-07-28T00:06:22;95473.72;;;25.28;46.03
68141;BME280;54941;52.220;104.306;2023-07-28T00:08:49;95471.59;;;25.88;44.85
68141;BME280;54941;52.220;104.306;2023-07-28T00:11:15;95470.75;;;26.70;43.23
68141;BME280;54941;52.220;104.306;2023-07-28T00:13:42;95470.09;;;26.41;43.35
68141;BME280;54941;52.220;104.306;2023-07-28T00:16:10;95477.16;;;25.87;44.76
68141;BME280;54941;52.220;104.306;2023-07-28T00:18:36;95471.97;;;25.47;45.60
68141;BME280;54941;52.220;104.306;2023-07-28T00:21:04;95476.44;;;25.28;46.82
68141;BME280;54941;52.220;104.306;2023-07-28T00:23:30;95469.03;;;25.87;45.08
68141;BME280;54941;52.220;104.306;2023-07-28T00:25:57;95461.22;;;27.20;42.18
68141;BME280;54941;52.220;104.306;2023-07-28T00:28:23;95465.56;;;27.74;41.08
68141;BME280;54941;52.220;104.306;2023-07-28T00:30:50;95468.69;;;27.00;42.32
68141;BME280;54941;52.220;104.306;2023-07-28T00:33:18;95462.78;;;26.87;43.08
68141;BME280;54941;52.220;104.306;2023-07-28T00:35:44;95458.84;;;26.63;43.82
68141;BME280;54941;52.220;104.306;2023-07-28T00:38:10;95464.75;;;27.12;42.06
68141;BME280;54941;52.220;104.306;2023-07-28T00:40:37;95456.66;;;27.20;42.07
68141;BME280;54941;52.220;104.306;2023-07-28T00:43:03;95458.00;;;27.16;42.26
68141;BME280;54941;52.220;104.306;2023-07-28T00:45:31;95454.69;;;27.48;41.04
68141;BME280;54941;52.220;104.306;2023-07-28T00:47:59;95461.47;;;27.70;41.08
68141;BME280;54941;52.220;104.306;2023-07-28T00:50:27;95456.91;;;27.53;41.33
68141;BME280;54941;52.220;104.306;2023-07-28T00:52:55;95456.97;;;27.35;40.94
68141;BME280;54941;52.220;104.306;2023-07-28T00:55:22;95452.75;;;27.41;41.25
68141;BME280;54941;52.220;104.306;2023-07-28T00:57:48;95451.03;;;27.83;40.60
68141;BME280;54941;52.220;104.306;2023-07-28T01:00:15;95446.97;;;27.87;40.25
68141;BME280;54941;52.220;104.306;2023-07-28T01:02:42;95448.28;;;28.43;39.44
68141;BME280;54941;52.220;104.306;2023-07-28T01:05:08;95452.22;;;28.15;39.70
68141;BME280;54941;52.220;104.306;2023-07-28T01:07:40;95448.94;;;28.45;39.72
68141;BME280;54941;52.220;104.306;2023-07-28T01:10:11;95452.91;;;27.39;41.84
68141;BME280;54941;52.220;104.306;2023-07-28T01:12:39;95449.00;;;27.33;42.65
68141;BME280;54941;52.220;104.306;2023-07-28T01:15:06;95453.94;;;27.64;41.99
68141;BME280;54941;52.220;104.306;2023-07-28T01:17:32;95443.31;;;27.45;43.82
68141;BME280;54941;52.220;104.306;2023-07-28T01:19:59;95445.13;;;27.18;42.68
68141;BME280;54941;52.220;104.306;2023-07-28T01:22:56;95452.25;;;26.84;43.26
68141;BME280;54941;52.220;104.306;2023-07-28T01:25:36;95449.97;;;26.61;43.83
68141;BME280;54941;52.220;104.306;2023-07-28T01:28:07;95449.09;;;27.68;42.06
68141;BME280;54941;52.220;104.306;2023-07-28T01:30:33;95453.13;;;27.02;42.33
68141;BME280;54941;52.220;104.306;2023-07-28T01:33:00;95446.97;;;26.46;43.98
68141;BME280;54941;52.220;104.306;2023-07-28T01:35:26;95448.50;;;26.49;44.36
68141;BME280;54941;52.220;104.306;2023-07-28T01:37:52;95444.78;;;27.39;42.81
68141;BME280;54941;52.220;104.306;2023-07-28T01:40:19;95447.81;;;28.14;41.23
68141;BME280;54941;52.220;104.306;2023-07-28T01:42:48;95454.56;;;28.44;40.26
68141;BME280;54941;52.220;104.306;2023-07-28T01:45:16;95456.69;;;28.83;39.17
68141;BME280;54941;52.220;104.306;2023-07-28T01:47:49;95453.28;;;28.81;39.82
68141;BME280;54941;52.220;104.306;2023-07-28T01:50:18;95446.13;;;30.10;36.71
68141;BME280;54941;52.220;104.306;2023-07-28T01:52:44;95449.31;;;30.21;36.06
68141;BME280;54941;52.220;104.306;2023-07-28T01:55:20;95436.53;;;29.67;37.33
68141;BME280;54941;52.220;104.306;2023-07-28T01:57:54;95448.88;;;28.71;38.75
68141;BME280;54941;52.220;104.306;2023-07-28T02:00:22;95432.69;;;30.08;37.03
68141;BME280;54941;52.220;104.306;2023-07-28T02:02:52;95443.84;;;29.01;37.58
68141;BME280;54941;52.220;104.306;2023-07-28T02:05:19;95443.91;;;28.67;39.58
68141;BME280;54941;52.220;104.306;2023-07-28T02:07:46;95443.72;;;28.52;38.90
68141;BME280;54941;52.220;104.306;2023-07-28T02:10:12;95435.38;;;28.45;39.74
68141;BME280;54941;52.220;104.306;2023-07-28T02:12:39;95431.09;;;29.26;37.45
68141;BME280;54941;52.220;104.306;2023-07-28T02:15:07;95428.38;;;29.50;37.63
68141;BME280;54941;52.220;104.306;2023-07-28T02:17:39;95420.44;;;30.83;35.23
68141;BME280;54941;52.220;104.306;2023-07-28T02:20:06;95414.41;;;29.45;37.97
68141;BME280;54941;52.220;104.306;2023-07-28T02:22:32;95419.56;;;30.51;36.16
68141;BME280;54941;52.220;104.306;2023-07-28T02:24:59;95418.91;;;30.41;36.55
68141;BME280;54941;52.220;104.306;2023-07-28T02:27:25;95426.94;;;28.65;39.76
68141;BME280;54941;52.220;104.306;2023-07-28T02:29:51;95422.56;;;29.29;38.21
68141;BME280;54941;52.220;104.306;2023-07-28T02:32:18;95419.69;;;31.34;34.61
68141;BME280;54941;52.220;104.306;2023-07-28T02:34:46;95423.81;;;31.53;34.51
68141;BME280;54941;52.220;104.306;2023-07-28T02:37:13;95423.63;;;30.55;36.49
68141;BME280;54941;52.220;104.306;2023-07-28T02:39:40;95421.56;;;29.14;39.12
68141;BME280;54941;52.220;104.306;2023-07-28T02:42:06;95429.41;;;29.57;38.62
68141;BME280;54941;52.220;104.306;2023-07-28T02:44:32;95416.94;;;30.35;36.92
68141;BME280;54941;52.220;104.306;2023-07-28T02:46:59;95420.13;;;29.83;37.50
68141;BME280;54941;52.220;104.306;2023-07-28T02:49:25;95424.56;;;29.84;37.79
68141;BME280;54941;52.220;104.306;2023-07-28T02:51:53;95413.38;;;30.88;35.26
68141;BME280;54941;52.220;104.306;2023-07-28T02:54:19;95403.03;;;30.05;37.81
68141;BME280;54941;52.220;104.306;2023-07-28T02:56:45;95403.31;;;30.35;36.81
68141;BME280;54941;52.220;104.306;2023-07-28T02:59:12;95398.34;;;31.76;33.98
68141;BME280;54941;52.220;104.306;2023-07-28T03:01:39;95396.22;;;31.02;36.57
68141;BME280;54941;52.220;104.306;2023-07-28T03:04:05;95401.22;;;32.63;32.59
68141;BME280;54941;52.220;104.306;2023-07-28T03:06:32;95406.00;;;30.97;35.95
68141;BME280;54941;52.220;104.306;2023-07-28T03:09:00;95408.47;;;29.66;37.93
68141;BME280;54941;52.220;104.306;2023-07-28T03:11:26;95406.97;;;30.81;36.01
68141;BME280;54941;52.220;104.306;2023-07-28T03:13:52;95402.59;;;31.93;34.06
68141;BME280;54941;52.220;104.306;2023-07-28T03:16:19;95399.13;;;31.47;33.54
68141;BME280;54941;52.220;104.306;2023-07-28T03:18:45;95406.66;;;31.45;33.02
68141;BME280;54941;52.220;104.306;2023-07-28T03:21:12;95399.28;;;30.23;35.83
68141;BME280;54941;52.220;104.306;2023-07-28T03:23:38;95391.75;;;31.10;33.97
68141;BME280;54941;52.220;104.306;2023-07-28T03:26:06;95394.09;;;31.13;33.41
68141;BME280;54941;52.220;104.306;2023-07-28T03:28:32;95386.75;;;30.36;34.81
68141;BME280;54941;52.220;104.306;2023-07-28T03:30:58;95383.56;;;31.10;33.84
68141;BME280;54941;52.220;104.306;2023-07-28T03:33:25;95393.66;;;29.60;36.97
68141;BME280;54941;52.220;104.306;2023-07-28T03:35:51;95393.28;;;30.58;34.99
68141;BME280;54941;52.220;104.306;2023-07-28T03:38:17;95393.50;;;28.72;38.24
68141;BME280;54941;52.220;104.306;2023-07-28T03:40:44;95391.78;;;28.63;38.63
68141;BME280;54941;52.220;104.306;2023-07-28T03:43:11;95383.25;;;28.50;39.25
68141;BME280;54941;52.220;104.306;2023-07-28T03:45:38;95382.81;;;29.03;37.04
68141;BME280;54941;52.220;104.306;2023-07-28T03:48:04;95383.31;;;28.91;36.59
68141;BME280;54941;52.220;104.306;2023-07-28T03:50:30;95387.94;;;29.95;34.99
68141;BME280;54941;52.220;104.306;2023-07-28T03:52:57;95376.19;;;29.30;36.41
68141;BME280;54941;52.220;104.306;2023-07-28T03:55:23;95383.81;;;29.02;36.52
68141;BME280;54941;52.220;104.306;2023-07-28T03:57:49;95384.94;;;28.59;36.48
68141;BME280;54941;52.220;104.306;2023-07-28T04:00:17;95376.28;;;28.56;36.70
68141;BME280;54941;52.220;104.306;2023-07-28T04:02:43;95381.19;;;27.94;39.22
68141;BME280;54941;52.220;104.306;2023-07-28T04:05:10;95376.38;;;27.79;40.63
68141;BME280;54941;52.220;104.306;2023-07-28T04:07:36;95365.44;;;28.05;40.02
68141;BME280;54941;52.220;104.306;2023-07-28T04:10:03;95357.97;;;27.39;39.14
68141;BME280;54941;52.220;104.306;2023-07-28T04:12:30;95353.94;;;27.69;39.45
68141;BME280;54941;52.220;104.306;2023-07-28T04:14:57;95345.72;;;29.43;34.85
68141;BME280;54941;52.220;104.306;2023-07-28T04:17:24;95344.41;;;30.26;33.64
68141;BME280;54941;52.220;104.306;2023-07-28T04:19:51;95350.16;;;29.52;35.08
68141;BME280;54941;52.220;104.306;2023-07-28T04:22:17;95346.81;;;30.20;32.87
68141;BME280;54941;52.220;104.306;2023-07-28T04:24:43;95352.19;;;28.77;35.45
68141;BME280;54941;52.220;104.306;2023-07-28T04:27:10;95346.31;;;30.17;33.33
68141;BME280;54941;52.220;104.306;2023-07-28T04:29:36;95341.94;;;29.60;35.19
68141;BME280;54941;52.220;104.306;2023-07-28T04:32:03;95346.53;;;29.60;35.30
68141;BME280;54941;52.220;104.306;2023-07-28T04:34:33;95337.22;;;28.81;35.54
68141;BME280;54941;52.220;104.306;2023-07-28T04:36:59;95335.03;;;28.60;35.06
68141;BME280;54941;52.220;104.306;2023-07-28T04:39:25;95333.16;;;28.69;35.07
68141;BME280;54941;52.220;104.306;2023-07-28T04:41:52;95334.69;;;28.63;35.17
68141;BME280;54941;52.220;104.306;2023-07-28T04:44:18;95336.09;;;28.09;34.70
68141;BME280;54941;52.220;104.306;2023-07-28T04:46:44;95340.88;;;28.15;36.45
68141;BME280;54941;52.220;104.306;2023-07-28T04:49:11;95339.38;;;27.78;37.61
68141;BME280;54941;52.220;104.306;2023-07-28T04:51:38;95336.25;;;27.65;37.81
68141;BME280;54941;52.220;104.306;2023-07-28T04:54:05;95341.78;;;27.81;37.27
68141;BME280;54941;52.220;104.306;2023-07-28T04:56:31;95344.84;;;27.86;38.59
68141;BME280;54941;52.220;104.306;2023-07-28T04:58:57;95343.47;;;27.82;38.86
68141;BME280;54941;52.220;104.306;2023-07-28T05:01:27;95333.31;;;28.51;35.37
68141;BME280;54941;52.220;104.306;2023-07-28T05:03:56;95324.25;;;28.26;36.89
68141;BME280;54941;52.220;104.306;2023-07-28T05:06:22;95320.84;;;28.24;37.65
68141;BME280;54941;52.220;104.306;2023-07-28T05:08:50;95336.72;;;27.60;37.85
68141;BME280;54941;52.220;104.306;2023-07-28T05:11:25;95324.09;;;27.77;37.74
68141;BME280;54941;52.220;104.306;2023-07-28T05:13:56;95320.44;;;27.95;37.67
68141;BME280;54941;52.220;104.306;2023-07-28T05:16:22;95318.38;;;27.88;38.02
68141;BME280;54941;52.220;104.306;2023-07-28T05:18:48;95316.13;;;27.76;39.25
68141;BME280;54941;52.220;104.306;2023-07-28T05:21:15;95303.88;;;26.86;40.31
68141;BME280;54941;52.220;104.306;2023-07-28T05:23:41;95298.84;;;27.51;39.17
68141;BME280;54941;52.220;104.306;2023-07-28T05:26:09;95293.94;;;26.68;41.39
68141;BME280;54941;52.220;104.306;2023-07-28T05:28:35;95292.81;;;26.79;41.32
68141;BME280;54941;52.220;104.306;2023-07-28T05:31:05;95287.34;;;26.71;41.61
68141;BME280;54941;52.220;104.306;2023-07-28T05:33:31;95286.91;;;26.84;41.70
68141;BME280;54941;52.220;104.306;2023-07-28T05:36:02;95285.41;;;27.07;41.90
68141;BME280;54941;52.220;104.306;2023-07-28T05:38:28;95281.06;;;27.14;40.83
68141;BME280;54941;52.220;104.306;2023-07-28T05:41:01;95278.53;;;26.95;41.39
68141;BME280;54941;52.220;104.306;2023-07-28T05:43:29;95287.50;;;26.95;43.50
68141;BME280;54941;52.220;104.306;2023-07-28T05:45:57;95281.38;;;27.79;40.90
68141;BME280;54941;52.220;104.306;2023-07-28T05:48:23;95282.13;;;27.55;41.64
68141;BME280;54941;52.220;104.306;2023-07-28T05:50:49;95270.72;;;27.94;40.65
68141;BME280;54941;52.220;104.306;2023-07-28T05:53:16;95277.97;;;27.09;41.04
68141;BME280;54941;52.220;104.306;2023-07-28T05:55:42;95278.53;;;26.69;42.35
68141;BME280;54941;52.220;104.306;2023-07-28T05:58:08;95283.94;;;27.13;42.69
68141;BME280;54941;52.220;104.306;2023-07-28T06:00:38;95278.50;;;27.13;41.46
68141;BME280;54941;52.220;104.306;2023-07-28T06:03:05;95278.78;;;27.01;42.12
68141;BME280;54941;52.220;104.306;2023-07-28T06:05:31;95274.09;;;26.94;41.95
68141;BME280;54941;52.220;104.306;2023-07-28T06:07:57;95273.09;;;27.13;42.62
68141;BME280;54941;52.220;104.306;2023-07-28T06:10:26;95272.19;;;26.60;43.58
68141;BME280;54941;52.220;104.306;2023-07-28T06:12:52;95272.59;;;26.73;43.84
68141;BME280;54941;52.220;104.306;2023-07-28T06:15:18;95269.59;;;27.28;42.16
68141;BME280;54941;52.220;104.306;2023-07-28T06:17:46;95256.69;;;28.15;38.99
68141;BME280;54941;52.220;104.306;2023-07-28T06:20:12;95265.44;;;27.84;39.31
68141;BME280;54941;52.220;104.306;2023-07-28T06:22:39;95262.38;;;27.79;39.77
68141;BME280;54941;52.220;104.306;2023-07-28T06:25:05;95258.66;;;27.97;39.78
68141;BME280;54941;52.220;104.306;2023-07-28T06:27:32;95254.97;;;28.14;39.23
68141;BME280;54941;52.220;104.306;2023-07-28T06:29:58;95265.97;;;27.96;39.30
68141;BME280;54941;52.220;104.306;2023-07-28T06:32:24;95259.19;;;28.08;39.30
68141;BME280;54941;52.220;104.306;2023-07-28T06:34:52;95255.31;;;28.19;39.28
68141;BME280;54941;52.220;104.306;2023-07-28T06:37:19;95250.22;;;29.05;38.17
68141;BME280;54941;52.220;104.306;2023-07-28T06:39:45;95243.34;;;29.34;35.66
68141;BME280;54941;52.220;104.306;2023-07-28T06:42:11;95243.13;;;28.56;36.75
68141;BME280;54941;52.220;104.306;2023-07-28T06:44:38;95237.69;;;28.47;35.17
68141;BME280;54941;52.220;104.306;2023-07-28T06:47:04;95235.31;;;28.61;37.37
68141;BME280;54941;52.220;104.306;2023-07-28T06:49:31;95241.28;;;27.31;35.47
68141;BME280;54941;52.220;104.306;2023-07-28T06:51:58;95233.28;;;27.55;37.03
68141;BME280;54941;52.220;104.306;2023-07-28T06:54:25;95216.13;;;28.30;32.27
68141;BME280;54941;52.220;104.306;2023-07-28T06:56:51;95223.63;;;28.28;34.42
68141;BME280;54941;52.220;104.306;2023-07-28T06:59:17;95231.22;;;28.65;35.46
68141;BME280;54941;52.220;104.306;2023-07-28T07:01:44;95219.34;;;28.74;35.53
68141;BME280;54941;52.220;104.306;2023-07-28T07:04:10;95215.94;;;28.07;36.65
68141;BME280;54941;52.220;104.306;2023-07-28T07:06:36;95200.13;;;27.94;35.74
68141;BME280;54941;52.220;104.306;2023-07-28T07:09:04;95198.59;;;27.92;34.90
68141;BME280;54941;52.220;104.306;2023-07-28T07:11:30;95201.66;;;28.13;35.40
68141;BME280;54941;52.220;104.306;2023-07-28T07:13:57;95202.38;;;28.31;33.57
68141;BME280;54941;52.220;104.306;2023-07-28T07:16:23;95207.25;;;27.79;32.39
68141;BME280;54941;52.220;104.306;2023-07-28T07:18:51;95206.25;;;28.04;34.42
68141;BME280;54941;52.220;104.306;2023-07-28T07:21:17;95216.25;;;27.96;36.27
68141;BME280;54941;52.220;104.306;2023-07-28T07:23:43;95213.00;;;27.84;38.13
68141;BME280;54941;52.220;104.306;2023-07-28T07:26:11;95218.47;;;27.92;36.39
68141;BME280;54941;52.220;104.306;2023-07-28T07:28:37;95215.75;;;27.92;36.99
68141;BME280;54941;52.220;104.306;2023-07-28T07:31:04;95210.47;;;27.99;37.15
68141;BME280;54941;52.220;104.306;2023-07-28T07:33:30;95205.72;;;28.01;36.48
68141;BME280;54941;52.220;104.306;2023-07-28T07:35:56;95190.13;;;27.95;36.98
68141;BME280;54941;52.220;104.306;2023-07-28T07:38:22;95195.88;;;27.83;33.65
68141;BME280;54941;52.220;104.306;2023-07-28T07:40:49;95185.97;;;27.58;35.40
68141;BME280;54941;52.220;104.306;2023-07-28T07:43:16;95182.56;;;27.56;34.66
68141;BME280;54941;52.220;104.306;2023-07-28T07:45:43;95187.94;;;27.40;34.99
68141;BME280;54941;52.220;104.306;2023-07-28T07:48:09;95187.91;;;27.82;34.22
68141;BME280;54941;52.220;104.306;2023-07-28T07:50:35;95189.00;;;27.63;34.19
68141;BME280;54941;52.220;104.306;2023-07-28T07:53:02;95196.94;;;27.48;33.61
68141;BME280;54941;52.220;104.306;2023-07-28T07:55:28;95196.31;;;27.20;34.35
68141;BME280;54941;52.220;104.306;2023-07-28T07:57:54;95200.84;;;27.03;35.49
68141;BME280;54941;52.220;104.306;2023-07-28T08:00:22;95205.75;;;27.08;35.39
68141;BME280;54941;52.220;104.306;2023-07-28T08:02:48;95200.34;;;27.50;35.79
68141;BME280;54941;52.220;104.306;2023-07-28T08:05:15;95192.75;;;27.62;35.38
68141;BME280;54941;52.220;104.306;2023-07-28T08:07:42;95194.31;;;27.65;34.60
68141;BME280;54941;52.220;104.306;2023-07-28T08:10:08;95198.44;;;28.01;33.21
68141;BME280;54941;52.220;104.306;2023-07-28T08:12:35;95194.84;;;28.01;34.12
68141;BME280;54941;52.220;104.306;2023-07-28T08:15:01;95190.16;;;28.35;34.17
68141;BME280;54941;52.220;104.306;2023-07-28T08:17:33;95197.41;;;28.10;34.39
68141;BME280;54941;52.220;104.306;2023-07-28T08:19:59;95186.41;;;28.36;33.99
68141;BME280;54941;52.220;104.306;2023-07-28T08:22:25;95185.41;;;28.37;34.36
68141;BME280;54941;52.220;104.306;2023-07-28T08:24:52;95181.16;;;28.43;34.92
68141;BME280;54941;52.220;104.306;2023-07-28T08:27:18;95178.59;;;28.09;35.64
68141;BME280;54941;52.220;104.306;2023-07-28T08:29:45;95185.03;;;28.08;35.94
68141;BME280;54941;52.220;104.306;2023-07-28T08:32:11;95179.09;;;28.53;35.24
68141;BME280;54941;52.220;104.306;2023-07-28T08:34:39;95172.91;;;27.61;37.08
68141;BME280;54941;52.220;104.306;2023-07-28T08:37:05;95184.00;;;27.26;39.46
68141;BME280;54941;52.220;104.306;2023-07-28T08:39:32;95181.88;;;27.03;39.90
68141;BME280;54941;52.220;104.306;2023-07-28T08:41:59;95168.91;;;27.23;39.93
68141;BME280;54941;52.220;104.306;2023-07-28T08:44:26;95167.63;;;27.01;40.23
68141;BME280;54941;52.220;104.306;2023-07-28T08:46:52;95170.16;;;27.45;39.88
68141;BME280;54941;52.220;104.306;2023-07-28T08:49:19;95166.91;;;28.49;36.18
68141;BME280;54941;52.220;104.306;2023-07-28T08:51:50;95156.38;;;28.30;36.70
68141;BME280;54941;52.220;104.306;2023-07-28T08:54:17;95152.63;;;28.06;38.01
68141;BME280;54941;52.220;104.306;2023-07-28T08:56:43;95163.81;;;27.95;37.34
68141;BME280;54941;52.220;104.306;2023-07-28T08:59:09;95153.13;;;28.18;36.21
68141;BME280;54941;52.220;104.306;2023-07-28T09:01:39;95154.31;;;28.15;35.31
68141;BME280;54941;52.220;104.306;2023-07-28T09:04:09;95149.34;;;28.68;36.35
68141;BME280;54941;52.220;104.306;2023-07-28T09:06:35;95145.25;;;28.88;35.75
68141;BME280;54941;52.220;104.306;2023-07-28T09:09:06;95158.09;;;29.02;35.49
68141;BME280;54941;52.220;104.306;2023-07-28T09:11:32;95152.78;;;28.54;34.20
68141;BME280;54941;52.220;104.306;2023-07-28T09:14:00;95155.19;;;28.48;34.89
68141;BME280;54941;52.220;104.306;2023-07-28T09:16:26;95155.50;;;27.97;36.22
68141;BME280;54941;52.220;104.306;2023-07-28T09:19:04;95154.50;;;28.38;34.82
68141;BME280;54941;52.220;104.306;2023-07-28T09:21:31;95151.44;;;28.33;35.42
68141;BME280;54941;52.220;104.306;2023-07-28T09:23:59;95157.03;;;28.15;36.40
68141;BME280;54941;52.220;104.306;2023-07-28T09:26:36;95154.81;;;28.11;36.59
68141;BME280;54941;52.220;104.306;2023-07-28T09:29:11;95154.97;;;28.01;37.62
68141;BME280;54941;52.220;104.306;2023-07-28T09:31:37;95153.16;;;28.02;38.02
68141;BME280;54941;52.220;104.306;2023-07-28T09:34:03;95155.31;;;27.74;37.75
68141;BME280;54941;52.220;104.306;2023-07-28T09:36:33;95162.91;;;27.62;35.38
68141;BME280;54941;52.220;104.306;2023-07-28T09:39:01;95156.09;;;27.50;37.00
68141;BME280;54941;52.220;104.306;2023-07-28T09:41:30;95161.94;;;27.87;35.51
68141;BME280;54941;52.220;104.306;2023-07-28T09:43:56;95159.03;;;27.73;34.77
68141;BME280;54941;52.220;104.306;2023-07-28T09:46:23;95156.41;;;27.55;35.89
68141;BME280;54941;52.220;104.306;2023-07-28T09:48:52;95156.19;;;27.32;35.66
68141;BME280;54941;52.220;104.306;2023-07-28T09:51:21;95157.69;;;27.69;33.74
68141;BME280;54941;52.220;104.306;2023-07-28T09:53:53;95152.78;;;27.72;34.73
68141;BME280;54941;52.220;104.306;2023-07-28T09:56:20;95146.00;;;27.68;34.96
68141;BME280;54941;52.220;104.306;2023-07-28T09:58:51;95149.16;;;27.55;34.26
68141;BME280;54941;52.220;104.306;2023-07-28T10:01:19;95144.88;;;27.53;35.57
68141;BME280;54941;52.220;104.306;2023-07-28T10:03:45;95144.19;;;27.35;35.46
68141;BME280;54941;52.220;104.306;2023-07-28T10:06:13;95142.47;;;26.91;35.87
68141;BME280;54941;52.220;104.306;2023-07-28T10:08:40;95146.06;;;27.00;37.79
68141;BME280;54941;52.220;104.306;2023-07-28T10:11:07;95154.09;;;26.75;38.81
68141;BME280;54941;52.220;104.306;2023-07-28T10:13:40;95146.53;;;27.21;38.00
68141;BME280;54941;52.220;104.306;2023-07-28T10:16:08;95145.31;;;27.16;38.21
68141;BME280;54941;52.220;104.306;2023-07-28T10:18:34;95134.38;;;27.33;37.83
68141;BME280;54941;52.220;104.306;2023-07-28T10:21:05;95133.88;;;27.54;38.06
68141;BME280;54941;52.220;104.306;2023-07-28T10:23:34;95129.81;;;27.58;37.94
68141;BME280;54941;52.220;104.306;2023-07-28T10:26:00;95134.81;;;27.79;36.47
68141;BME280;54941;52.220;104.306;2023-07-28T10:28:28;95135.13;;;27.84;35.41
68141;BME280;54941;52.220;104.306;2023-07-28T10:30:55;95139.72;;;28.00;35.48
68141;BME280;54941;52.220;104.306;2023-07-28T10:33:31;95140.06;;;27.97;35.26
68141;BME280;54941;52.220;104.306;2023-07-28T10:35:58;95137.34;;;28.05;34.73
68141;BME280;54941;52.220;104.306;2023-07-28T10:38:28;95131.41;;;27.94;35.49
68141;BME280;54941;52.220;104.306;2023-07-28T10:41:05;95127.28;;;27.57;38.41
68141;BME280;54941;52.220;104.306;2023-07-28T10:43:32;95121.28;;;27.21;38.72
68141;BME280;54941;52.220;104.306;2023-07-28T10:45:59;95120.28;;;27.38;37.47
68141;BME280;54941;52.220;104.306;2023-07-28T10:48:25;95118.69;;;27.19;37.21
68141;BME280;54941;52.220;104.306;2023-07-28T10:50:53;95118.56;;;27.29;36.95
68141;BME280;54941;52.220;104.306;2023-07-28T10:53:19;95126.47;;;27.06;37.47
68141;BME280;54941;52.220;104.306;2023-07-28T10:55:46;95124.47;;;26.82;39.17
68141;BME280;54941;52.220;104.306;2023-07-28T10:58:12;95128.13;;;26.65;41.19
68141;BME280;54941;52.220;104.306;2023-07-28T11:00:38;95132.25;;;26.43;44.47
68141;BME280;54941;52.220;104.306;2023-07-28T11:03:05;95128.06;;;26.31;44.37
68141;BME280;54941;52.220;104.306;2023-07-28T11:05:31;95134.00;;;26.34;43.18
68141;BME280;54941;52.220;104.306;2023-07-28T11:08:01;95131.38;;;26.16;42.16
68141;BME280;54941;52.220;104.306;2023-07-28T11:10:28;95141.63;;;26.13;43.13
68141;BME280;54941;52.220;104.306;2023-07-28T11:12:57;95143.97;;;26.08;42.99
68141;BME280;54941;52.220;104.306;2023-07-28T11:15:25;95141.03;;;26.01;43.04
68141;BME280;54941;52.220;104.306;2023-07-28T11:17:57;95141.47;;;25.71;50.32
68141;BME280;54941;52.220;104.306;2023-07-28T11:20:24;95143.94;;;24.91;54.85
68141;BME280;54941;52.220;104.306;2023-07-28T11:22:54;95138.47;;;24.36;56.46
68141;BME280;54941;52.220;104.306;2023-07-28T11:25:22;95138.56;;;23.98;61.15
68141;BME280;54941;52.220;104.306;2023-07-28T11:27:49;95147.06;;;23.83;62.60
68141;BME280;54941;52.220;104.306;2023-07-28T11:30:17;95154.19;;;23.65;64.84
68141;BME280;54941;52.220;104.306;2023-07-28T11:32:44;95150.06;;;23.61;64.89
68141;BME280;54941;52.220;104.306;2023-07-28T11:35:13;95149.94;;;23.63;64.15
68141;BME280;54941;52.220;104.306;2023-07-28T11:37:41;95151.19;;;23.58;64.82
68141;BME280;54941;52.220;104.306;2023-07-28T11:40:09;95141.66;;;23.35;66.44
68141;BME280;54941;52.220;104.306;2023-07-28T11:42:38;95148.72;;;23.26;66.62
68141;BME280;54941;52.220;104.306;2023-07-28T11:45:06;95139.19;;;23.03;67.76
68141;BME280;54941;52.220;104.306;2023-07-28T11:47:33;95140.75;;;22.96;67.31
68141;BME280;54941;52.220;104.306;2023-07-28T11:50:00;95137.91;;;22.97;65.99
68141;BME280;54941;52.220;104.306;2023-07-28T11:52:30;95150.25;;;23.00;65.28
68141;BME280;54941;52.220;104.306;2023-07-28T11:54:56;95156.34;;;22.92;64.85
68141;BME280;54941;52.220;104.306;2023-07-28T11:57:25;95158.56;;;22.87;65.81
68141;BME280;54941;52.220;104.306;2023-07-28T11:59:53;95159.53;;;22.46;68.67
68141;BME280;54941;52.220;104.306;2023-07-28T12:02:25;95161.84;;;22.30;68.79
68141;BME280;54941;52.220;104.306;2023-07-28T12:04:51;95168.06;;;22.51;66.86
68141;BME280;54941;52.220;104.306;2023-07-28T12:07:18;95163.94;;;22.47;66.69
68141;BME280;54941;52.220;104.306;2023-07-28T12:09:48;95157.94;;;22.43;67.25
68141;BME280;54941;52.220;104.306;2023-07-28T12:12:16;95165.66;;;22.27;69.58
68141;BME280;54941;52.220;104.306;2023-07-28T12:14:42;95169.47;;;22.04;69.24
68141;BME280;54941;52.220;104.306;2023-07-28T12:17:13;95164.31;;;22.12;68.91
68141;BME280;54941;52.220;104.306;2023-07-28T12:19:55;95174.59;;;22.07;70.19
68141;BME280;54941;52.220;104.306;2023-07-28T12:22:21;95177.16;;;22.08;72.13
68141;BME280;54941;52.220;104.306;2023-07-28T12:24:48;95191.50;;;21.77;70.98
68141;BME280;54941;52.220;104.306;2023-07-28T12:27:14;95184.59;;;21.84;69.90
68141;BME280;54941;52.220;104.306;2023-07-28T12:29:40;95179.50;;;22.02;67.89
68141;BME280;54941;52.220;104.306;2023-07-28T12:32:07;95177.66;;;22.02;66.52
68141;BME280;54941;52.220;104.306;2023-07-28T12:34:35;95183.03;;;22.02;67.63
68141;BME280;54941;52.220;104.306;2023-07-28T12:37:01;95185.13;;;21.99;68.25
68141;BME280;54941;52.220;104.306;2023-07-28T12:39:27;95202.31;;;21.66;68.41
68141;BME280;54941;52.220;104.306;2023-07-28T12:41:54;95221.31;;;21.74;69.29